createdAt,value
2022-12-31T00:02:01.153Z,2.60
2022-12-31T00:04:28.163Z,2.70
2022-12-31T00:06:55.391Z,2.70
2022-12-31T00:09:28.989Z,2.60
2022-12-31T00:11:56.594Z,2.60
2022-12-31T00:14:24.289Z,2.50
2022-12-31T00:16:58.129Z,2.60
2022-12-31T00:19:25.126Z,2.60
2022-12-31T00:21:59.035Z,2.50
2022-12-31T00:24:26.920Z,2.40
2022-12-31T00:27:01.391Z,2.50
2022-12-31T00:29:28.486Z,2.50
2022-12-31T00:32:02.469Z,2.30
2022-12-31T00:34:30.500Z,2.40
2022-12-31T00:37:04.336Z,2.50
2022-12-31T00:39:31.766Z,2.40
2022-12-31T00:42:05.232Z,2.30
2022-12-31T00:44:32.668Z,2.20
2022-12-31T00:47:05.999Z,2.10
2022-12-31T00:49:33.282Z,2.10
2022-12-31T00:52:00.409Z,2.10
2022-12-31T00:54:33.991Z,2.10
2022-12-31T00:57:00.884Z,2.20
2022-12-31T00:59:35.131Z,2.10
2022-12-31T01:02:02.633Z,2.20
2022-12-31T01:04:36.100Z,2.20
2022-12-31T01:07:04.493Z,2.30
2022-12-31T01:09:38.323Z,2.20
2022-12-31T01:12:12.090Z,2.20
2022-12-31T01:14:45.008Z,2.10
2022-12-31T01:17:12.767Z,2.20
2022-12-31T01:19:47.232Z,2.30
2022-12-31T01:22:14.871Z,2.30
2022-12-31T01:24:42.738Z,2.40
2022-12-31T01:27:16.998Z,2.30
2022-12-31T01:29:50.659Z,2.30
2022-12-31T01:32:17.592Z,2.30
2022-12-31T01:34:51.056Z,2.20
2022-12-31T01:37:25.003Z,2.10
2022-12-31T01:39:53.340Z,2.00
2022-12-31T01:42:20.456Z,1.90
2022-12-31T01:45:01.058Z,1.90
2022-12-31T01:47:47.738Z,1.90
2022-12-31T01:50:34.015Z,1.80
2022-12-31T01:53:10.057Z,1.70
2022-12-31T01:55:45.052Z,1.70
2022-12-31T01:58:23.055Z,1.70
2022-12-31T02:00:50.831Z,1.70
2022-12-31T02:03:25.118Z,1.70
2022-12-31T02:06:14.438Z,1.90
2022-12-31T02:12:39.067Z,1.70
2022-12-31T02:15:06.900Z,1.70
2022-12-31T02:18:15.594Z,1.70
2022-12-31T02:21:14.923Z,1.60
2022-12-31T02:24:02.063Z,1.50
2022-12-31T02:27:28.039Z,1.60
2022-12-31T02:30:13.027Z,1.50
2022-12-31T02:32:59.144Z,1.50
2022-12-31T02:35:30.992Z,1.40
2022-12-31T02:38:22.174Z,1.40
2022-12-31T02:40:49.190Z,1.50
2022-12-31T02:43:30.417Z,1.60
2022-12-31T02:46:23.263Z,1.70
2022-12-31T02:49:03.081Z,1.60
2022-12-31T02:51:53.321Z,1.60
2022-12-31T02:54:40.060Z,1.60
2022-12-31T02:57:30.654Z,1.60
2022-12-31T03:00:10.708Z,1.50
2022-12-31T03:02:39.034Z,1.50
2022-12-31T03:05:13.086Z,1.50
2022-12-31T03:07:41.367Z,1.50
2022-12-31T03:10:15.046Z,1.30
2022-12-31T03:12:50.498Z,1.40
2022-12-31T03:15:32.757Z,1.40
2022-12-31T03:18:22.039Z,1.30
2022-12-31T03:20:50.612Z,1.30
2022-12-31T03:23:29.753Z,1.40
2022-12-31T03:25:58.792Z,1.40
2022-12-31T03:28:28.485Z,1.40
2022-12-31T03:31:06.913Z,1.40
2022-12-31T03:33:37.803Z,1.40
2022-12-31T03:36:14.271Z,1.50
2022-12-31T03:38:41.546Z,1.50
2022-12-31T03:41:17.126Z,1.50
2022-12-31T03:43:50.064Z,1.50
2022-12-31T03:46:17.063Z,1.40
2022-12-31T03:48:50.101Z,1.30
2022-12-31T03:51:17.042Z,1.20
2022-12-31T03:53:50.052Z,1.20
2022-12-31T03:56:23.111Z,1.20
2022-12-31T03:58:50.035Z,1.30
2022-12-31T04:01:17.033Z,1.30
2022-12-31T04:03:50.046Z,1.40
2022-12-31T04:06:16.954Z,1.30
2022-12-31T04:08:43.860Z,1.30
2022-12-31T04:11:20.848Z,1.30
2022-12-31T04:13:55.180Z,1.30
2022-12-31T04:16:28.121Z,1.30
2022-12-31T04:18:55.033Z,1.40
2022-12-31T04:21:34.667Z,1.40
2022-12-31T04:24:02.063Z,1.30
2022-12-31T04:26:36.121Z,1.30
2022-12-31T04:29:03.097Z,1.30
2022-12-31T04:31:30.020Z,1.30
2022-12-31T04:34:03.112Z,1.30
2022-12-31T04:36:30.003Z,1.30
2022-12-31T04:39:03.124Z,1.30
2022-12-31T04:41:30.001Z,1.30
2022-12-31T04:44:05.082Z,1.30
2022-12-31T04:46:33.108Z,1.40
2022-12-31T04:49:00.243Z,1.40
2022-12-31T04:51:34.136Z,1.40
2022-12-31T04:54:07.103Z,1.40
2022-12-31T04:56:34.005Z,1.40
2022-12-31T04:59:07.183Z,1.50
2022-12-31T05:01:34.176Z,1.50
2022-12-31T05:04:01.167Z,1.50
2022-12-31T05:06:34.140Z,1.50
2022-12-31T05:09:01.014Z,1.50
2022-12-31T05:11:27.881Z,1.50
2022-12-31T05:14:01.120Z,1.50
2022-12-31T05:16:28.063Z,1.50
2022-12-31T05:19:01.143Z,1.50
2022-12-31T05:21:28.011Z,1.50
2022-12-31T05:24:01.098Z,1.60
2022-12-31T05:26:28.009Z,1.60
2022-12-31T05:29:01.125Z,1.60
2022-12-31T05:31:28.099Z,1.60
2022-12-31T05:34:01.133Z,1.60
2022-12-31T05:36:28.021Z,1.60
2022-12-31T05:39:01.099Z,1.70
2022-12-31T05:41:27.991Z,1.60
2022-12-31T05:44:01.148Z,1.70
2022-12-31T05:46:28.029Z,1.60
2022-12-31T05:48:54.968Z,1.60
2022-12-31T05:51:28.144Z,1.60
2022-12-31T05:53:55.056Z,1.50
2022-12-31T05:56:21.926Z,1.50
2022-12-31T05:58:55.111Z,1.60
2022-12-31T06:01:22.141Z,1.40
2022-12-31T06:03:49.119Z,1.40
2022-12-31T06:06:22.155Z,1.50
2022-12-31T06:08:59.209Z,1.40
2022-12-31T06:11:26.108Z,1.30
2022-12-31T06:13:59.120Z,1.40
2022-12-31T06:16:26.102Z,1.50
2022-12-31T06:18:59.177Z,1.50
2022-12-31T06:21:32.169Z,1.40
2022-12-31T06:23:59.171Z,1.60
2022-12-31T06:26:27.123Z,1.60
2022-12-31T06:29:01.149Z,1.60
2022-12-31T06:31:28.137Z,1.60
2022-12-31T06:34:02.227Z,1.50
2022-12-31T06:36:35.146Z,1.70
2022-12-31T06:39:02.010Z,1.70
2022-12-31T06:41:28.856Z,1.90
2022-12-31T06:44:02.145Z,1.90
2022-12-31T06:46:29.146Z,1.70
2022-12-31T06:49:02.214Z,1.70
2022-12-31T06:51:29.103Z,1.80
2022-12-31T06:54:02.143Z,1.90
2022-12-31T06:56:34.528Z,1.80
2022-12-31T06:59:09.166Z,1.70
2022-12-31T07:02:23.017Z,1.70
2022-12-31T07:05:05.214Z,1.70
2022-12-31T07:08:03.133Z,1.70
2022-12-31T07:10:55.906Z,1.70
2022-12-31T07:13:58.230Z,1.60
2022-12-31T07:16:36.333Z,1.70
2022-12-31T07:19:31.199Z,1.70
2022-12-31T07:22:06.197Z,1.60
2022-12-31T07:24:33.516Z,1.50
2022-12-31T07:27:38.208Z,1.60
2022-12-31T07:30:12.293Z,1.70
2022-12-31T07:33:28.215Z,1.80
2022-12-31T07:36:26.242Z,1.90
2022-12-31T07:39:21.197Z,1.90
2022-12-31T07:42:07.164Z,2.00
2022-12-31T07:45:10.667Z,2.00
2022-12-31T07:47:45.189Z,2.10
2022-12-31T07:50:17.662Z,2.10
2022-12-31T07:52:51.169Z,2.20
2022-12-31T07:55:24.207Z,2.10
2022-12-31T07:58:35.231Z,2.20
2022-12-31T08:01:02.263Z,2.30
2022-12-31T08:03:48.205Z,2.40
2022-12-31T08:06:32.609Z,2.50
2022-12-31T08:09:31.240Z,2.80
2022-12-31T08:12:00.014Z,2.90
2022-12-31T08:14:37.192Z,3.30
2022-12-31T08:17:04.465Z,4.20
2022-12-31T08:19:32.602Z,4.60
2022-12-31T08:22:33.235Z,4.80
2022-12-31T08:25:39.305Z,4.30
2022-12-31T08:28:47.246Z,4.20
2022-12-31T08:31:25.271Z,4.10
2022-12-31T08:34:13.812Z,4.10
2022-12-31T08:37:02.200Z,4.20
2022-12-31T08:39:42.258Z,4.10
2022-12-31T08:42:43.224Z,4.30
2022-12-31T08:45:15.693Z,4.40
2022-12-31T08:48:07.210Z,4.50
2022-12-31T08:50:34.364Z,4.60
2022-12-31T08:53:01.996Z,4.50
2022-12-31T08:55:36.225Z,4.60
2022-12-31T08:58:37.260Z,4.60
2022-12-31T09:01:11.321Z,4.60
2022-12-31T09:04:11.895Z,4.60
2022-12-31T09:06:50.261Z,4.70
2022-12-31T09:09:54.235Z,5.10
2022-12-31T09:12:32.617Z,5.10
2022-12-31T09:15:21.230Z,5.40
2022-12-31T09:17:50.051Z,5.40
2022-12-31T09:20:44.237Z,5.40
2022-12-31T09:23:12.605Z,5.60
2022-12-31T09:25:58.217Z,5.70
2022-12-31T09:28:45.246Z,5.70
2022-12-31T09:31:59.300Z,5.80
2022-12-31T09:34:50.761Z,5.90
2022-12-31T09:37:41.217Z,6.10
2022-12-31T09:40:32.510Z,6.10
2022-12-31T09:43:39.253Z,6.10
2022-12-31T09:46:15.086Z,6.30
2022-12-31T09:49:31.269Z,6.50
2022-12-31T09:52:37.215Z,6.60
2022-12-31T09:55:31.901Z,6.60
2022-12-31T09:58:25.300Z,6.80
2022-12-31T10:00:53.697Z,6.80
2022-12-31T10:03:41.263Z,7.10
2022-12-31T10:06:52.273Z,7.30
2022-12-31T10:09:42.268Z,7.20
2022-12-31T10:13:16.273Z,7.10
2022-12-31T10:16:51.344Z,7.30
2022-12-31T10:19:39.577Z,7.30
2022-12-31T10:22:23.276Z,7.60
2022-12-31T10:25:39.035Z,7.60
2022-12-31T10:28:22.279Z,7.90
2022-12-31T10:31:29.920Z,8.00
2022-12-31T10:34:14.276Z,8.10
2022-12-31T10:37:16.251Z,8.10
2022-12-31T10:39:55.457Z,8.30
2022-12-31T10:42:51.292Z,8.20
2022-12-31T10:45:28.403Z,8.40
2022-12-31T10:48:13.298Z,8.70
2022-12-31T10:50:54.813Z,8.80
2022-12-31T10:54:22.292Z,8.90
2022-12-31T10:57:20.242Z,8.80
2022-12-31T11:00:29.242Z,9.10
2022-12-31T11:03:30.311Z,9.10
2022-12-31T11:06:34.251Z,9.30
2022-12-31T11:09:39.293Z,9.30
2022-12-31T11:12:39.446Z,9.40
2022-12-31T11:15:20.929Z,9.30
2022-12-31T11:18:27.891Z,9.30
2022-12-31T11:21:28.757Z,9.40
2022-12-31T11:24:28.430Z,9.50
2022-12-31T11:27:02.273Z,9.60
2022-12-31T11:30:18.292Z,9.60
2022-12-31T11:33:24.470Z,9.80
2022-12-31T11:37:10.315Z,9.90
2022-12-31T11:40:12.667Z,10.10
2022-12-31T11:43:15.280Z,9.90
2022-12-31T11:46:21.921Z,9.80
2022-12-31T11:49:39.322Z,10.00
2022-12-31T11:52:31.765Z,10.10
2022-12-31T11:55:19.347Z,10.20
2022-12-31T11:57:50.576Z,10.30
2022-12-31T12:00:33.280Z,10.20
2022-12-31T12:03:10.352Z,10.50
2022-12-31T12:05:38.646Z,10.40
2022-12-31T12:08:12.349Z,10.40
2022-12-31T12:10:50.111Z,10.30
2022-12-31T12:13:33.327Z,10.40
2022-12-31T12:16:06.499Z,10.50
2022-12-31T12:19:12.335Z,10.70
2022-12-31T12:21:53.292Z,10.60
2022-12-31T12:24:36.329Z,10.70
2022-12-31T12:27:03.251Z,10.80
2022-12-31T12:29:41.312Z,10.70
2022-12-31T12:32:20.813Z,10.80
2022-12-31T12:34:54.359Z,10.90
2022-12-31T12:37:24.245Z,10.80
2022-12-31T12:40:06.301Z,10.80
2022-12-31T12:42:33.268Z,10.90
2022-12-31T12:45:23.348Z,10.90
2022-12-31T12:48:02.317Z,10.80
2022-12-31T12:50:43.494Z,10.90
2022-12-31T12:53:39.506Z,11.00
2022-12-31T12:56:19.327Z,10.90
2022-12-31T12:59:05.322Z,11.00
2022-12-31T13:01:41.244Z,10.90
2022-12-31T13:05:11.345Z,10.80
2022-12-31T13:08:18.366Z,10.90
2022-12-31T13:11:05.146Z,11.10
2022-12-31T13:14:25.342Z,11.10
2022-12-31T13:17:20.027Z,10.90
2022-12-31T13:19:57.334Z,11.10
2022-12-31T13:22:34.330Z,10.90
2022-12-31T13:25:13.349Z,10.80
2022-12-31T13:27:43.438Z,10.90
2022-12-31T13:30:43.350Z,10.90
2022-12-31T13:33:24.437Z,10.90
2022-12-31T13:36:09.326Z,11.00
2022-12-31T13:38:41.368Z,10.90
2022-12-31T13:41:29.379Z,10.90
2022-12-31T13:44:39.336Z,10.90
2022-12-31T13:47:20.171Z,11.00
2022-12-31T13:50:14.973Z,10.90
2022-12-31T13:53:05.608Z,10.90
2022-12-31T13:55:56.832Z,10.90
2022-12-31T13:58:35.404Z,10.80
2022-12-31T14:01:32.102Z,10.60
2022-12-31T14:04:27.467Z,10.60
2022-12-31T14:07:07.895Z,10.70
2022-12-31T14:09:41.428Z,10.70
2022-12-31T14:12:23.211Z,10.80
2022-12-31T14:15:32.425Z,10.70
2022-12-31T14:18:36.430Z,10.50
2022-12-31T14:21:48.534Z,10.70
2022-12-31T14:24:53.512Z,10.60
2022-12-31T14:27:47.480Z,10.80
2022-12-31T14:30:20.431Z,10.60
2022-12-31T14:33:30.447Z,10.60
2022-12-31T14:36:26.409Z,10.60
2022-12-31T14:39:11.520Z,10.40
2022-12-31T14:41:52.124Z,10.30
2022-12-31T14:44:49.540Z,10.30
2022-12-31T14:47:50.254Z,10.30
2022-12-31T14:50:29.477Z,10.40
2022-12-31T14:53:05.787Z,10.30
2022-12-31T14:55:46.523Z,10.30
2022-12-31T14:58:31.488Z,10.20
2022-12-31T15:01:13.487Z,10.00
2022-12-31T15:03:45.828Z,9.90
2022-12-31T15:06:25.460Z,9.90
2022-12-31T15:09:38.925Z,9.80
2022-12-31T15:12:23.399Z,9.90
2022-12-31T15:15:11.446Z,9.90
2022-12-31T15:17:48.767Z,9.90
2022-12-31T15:20:34.396Z,9.90
2022-12-31T15:23:07.453Z,9.90
2022-12-31T15:25:41.100Z,9.70
2022-12-31T15:28:39.436Z,9.70
2022-12-31T15:31:18.159Z,9.70
2022-12-31T15:34:13.510Z,9.70
2022-12-31T15:36:59.456Z,9.60
2022-12-31T15:39:32.588Z,9.40
2022-12-31T15:45:01.205Z,9.20
2022-12-31T15:47:44.054Z,8.90
2022-12-31T15:50:35.470Z,8.80
2022-12-31T15:53:03.251Z,8.90
2022-12-31T15:55:52.559Z,8.80
2022-12-31T15:58:31.888Z,8.60
2022-12-31T16:01:29.538Z,8.70
2022-12-31T16:04:12.642Z,8.60
2022-12-31T16:06:50.711Z,8.50
2022-12-31T16:09:24.347Z,8.50
2022-12-31T16:11:58.473Z,8.50
2022-12-31T16:14:36.797Z,8.30
2022-12-31T16:17:10.433Z,8.40
2022-12-31T16:19:43.638Z,8.30
2022-12-31T16:22:22.434Z,8.20
2022-12-31T16:25:30.116Z,8.10
2022-12-31T16:28:01.537Z,8.10
2022-12-31T16:30:39.433Z,8.10
2022-12-31T16:33:06.923Z,8.20
2022-12-31T16:35:42.436Z,8.20
2022-12-31T16:38:14.474Z,8.10
2022-12-31T16:41:21.486Z,7.90
2022-12-31T16:43:49.441Z,7.80
2022-12-31T16:46:26.531Z,7.60
2022-12-31T16:49:06.740Z,7.70
2022-12-31T16:51:40.463Z,7.40
2022-12-31T16:54:07.355Z,7.40
2022-12-31T16:56:45.527Z,7.40
2022-12-31T16:59:39.477Z,7.40
2022-12-31T17:02:16.380Z,7.30
2022-12-31T17:04:58.807Z,7.20
2022-12-31T17:07:32.150Z,7.30
2022-12-31T17:10:20.497Z,7.20
2022-12-31T17:13:31.482Z,7.10
2022-12-31T17:15:58.528Z,7.10
2022-12-31T17:18:42.483Z,7.10
2022-12-31T17:21:09.773Z,7.00
2022-12-31T17:23:44.477Z,7.00
2022-12-31T17:26:14.143Z,6.80
2022-12-31T17:28:58.501Z,6.70
2022-12-31T17:31:31.312Z,6.60
2022-12-31T17:34:20.463Z,6.70
2022-12-31T17:37:09.451Z,6.60
2022-12-31T17:39:52.506Z,6.60
2022-12-31T17:42:43.456Z,6.60
2022-12-31T17:45:20.616Z,6.60
2022-12-31T17:47:55.487Z,6.80
2022-12-31T17:50:31.519Z,6.70
2022-12-31T17:53:11.248Z,6.60
2022-12-31T17:55:44.465Z,6.60
2022-12-31T17:58:39.630Z,6.60
2022-12-31T18:01:07.633Z,6.60
2022-12-31T18:03:34.739Z,6.70
2022-12-31T18:06:14.510Z,6.60
2022-12-31T18:08:43.416Z,6.50
2022-12-31T18:11:28.546Z,6.40
2022-12-31T18:13:55.516Z,6.40
2022-12-31T18:16:22.467Z,6.40
2022-12-31T18:18:56.480Z,6.30
2022-12-31T18:21:37.563Z,6.30
2022-12-31T18:24:11.639Z,6.30
2022-12-31T18:26:38.566Z,6.30
2022-12-31T18:29:24.481Z,6.30
2022-12-31T18:31:51.524Z,6.30
2022-12-31T18:34:25.562Z,6.50
2022-12-31T18:36:52.480Z,6.50
2022-12-31T18:39:25.726Z,6.60
2022-12-31T18:41:52.621Z,6.60
2022-12-31T18:44:19.458Z,6.60
2022-12-31T18:46:52.576Z,6.70
2022-12-31T18:49:19.439Z,6.80
2022-12-31T18:51:46.280Z,6.80
2022-12-31T18:54:19.530Z,6.90
2022-12-31T18:56:48.424Z,6.80
2022-12-31T18:59:24.494Z,6.90
2022-12-31T19:01:51.493Z,6.90
2022-12-31T19:04:28.319Z,6.90
2022-12-31T19:06:55.619Z,6.80
2022-12-31T19:09:46.379Z,6.90
2022-12-31T19:12:14.203Z,6.80
2022-12-31T19:14:47.476Z,6.70
2022-12-31T19:17:20.510Z,6.60
2022-12-31T19:19:47.362Z,6.60
2022-12-31T19:22:21.644Z,6.50
2022-12-31T19:24:55.539Z,6.40
2022-12-31T19:27:22.461Z,6.50
2022-12-31T19:29:55.631Z,6.50
2022-12-31T19:32:22.564Z,6.50
2022-12-31T19:34:49.516Z,6.50
2022-12-31T19:37:22.567Z,6.50
2022-12-31T19:39:49.478Z,6.50
2022-12-31T19:42:22.561Z,6.30
2022-12-31T19:44:49.419Z,6.30
2022-12-31T19:47:22.560Z,6.30
2022-12-31T19:49:49.445Z,6.30
2022-12-31T19:52:22.551Z,6.30
2022-12-31T19:54:49.565Z,6.30
2022-12-31T19:57:22.536Z,6.30
2022-12-31T19:59:56.235Z,6.30
2022-12-31T20:02:29.703Z,6.30
2022-12-31T20:04:56.722Z,6.30
2022-12-31T20:07:30.548Z,6.40
2022-12-31T20:10:03.587Z,6.40
2022-12-31T20:12:42.242Z,6.40
2022-12-31T20:15:17.535Z,6.40
2022-12-31T20:17:51.593Z,6.40
2022-12-31T20:20:19.326Z,6.30
2022-12-31T20:22:52.571Z,6.40
2022-12-31T20:25:19.512Z,6.40
2022-12-31T20:27:52.649Z,6.40
2022-12-31T20:30:19.603Z,6.40
2022-12-31T20:32:46.545Z,6.40
2022-12-31T20:35:19.572Z,6.40
2022-12-31T20:37:46.726Z,6.40
2022-12-31T20:40:23.025Z,6.50
2022-12-31T20:42:50.761Z,6.30
2022-12-31T20:45:25.542Z,6.30
2022-12-31T20:48:00.408Z,6.30
2022-12-31T20:50:27.385Z,6.20
2022-12-31T20:53:01.616Z,6.30
2022-12-31T20:55:29.605Z,6.20
2022-12-31T20:58:04.382Z,6.30
2022-12-31T21:00:31.429Z,6.40
2022-12-31T21:03:18.664Z,6.40
2022-12-31T21:05:54.648Z,6.50
2022-12-31T21:08:34.491Z,6.40
2022-12-31T21:11:03.181Z,6.50
2022-12-31T21:13:36.592Z,6.60
2022-12-31T21:16:03.769Z,6.70
2022-12-31T21:18:30.860Z,6.70
2022-12-31T21:21:04.632Z,6.80
2022-12-31T21:23:31.533Z,6.80
2022-12-31T21:26:04.677Z,6.90
2022-12-31T21:28:32.416Z,7.00
2022-12-31T21:31:08.133Z,7.20
2022-12-31T21:33:35.390Z,7.10
2022-12-31T21:36:05.026Z,7.00
2022-12-31T21:38:40.001Z,7.10
2022-12-31T21:41:08.095Z,7.20
2022-12-31T21:43:42.158Z,7.10
2022-12-31T21:46:18.140Z,7.00
2022-12-31T21:48:53.426Z,7.10
2022-12-31T21:51:26.780Z,7.00
2022-12-31T21:53:53.840Z,7.00
2022-12-31T21:56:21.057Z,7.00
2022-12-31T21:59:03.599Z,7.00
2022-12-31T22:01:37.765Z,6.90
2022-12-31T22:04:35.146Z,6.90
2022-12-31T22:07:06.215Z,6.80
2022-12-31T22:09:39.641Z,6.90
2022-12-31T22:12:08.364Z,6.90
2022-12-31T22:15:15.989Z,6.80
2022-12-31T22:17:35.612Z,6.80
2022-12-31T22:20:26.582Z,6.80
2022-12-31T22:22:55.629Z,7.00
2022-12-31T22:25:22.709Z,7.00
2022-12-31T22:28:36.254Z,6.90
2022-12-31T22:30:48.831Z,6.90
2022-12-31T22:33:23.898Z,7.00
2022-12-31T22:36:12.987Z,7.00
2022-12-31T22:38:40.245Z,6.90
2022-12-31T22:41:24.624Z,6.90
2022-12-31T22:44:02.699Z,7.00
2022-12-31T22:46:44.728Z,7.00
2022-12-31T22:49:24.687Z,7.00
2022-12-31T22:51:55.784Z,7.00
2022-12-31T22:54:32.932Z,7.00
2022-12-31T22:57:01.257Z,7.10
2022-12-31T22:59:36.464Z,7.10
2022-12-31T23:02:03.531Z,7.00
2022-12-31T23:04:31.591Z,7.00
2022-12-31T23:07:06.694Z,7.10
2022-12-31T23:09:33.750Z,7.10
2022-12-31T23:12:07.616Z,7.10
2022-12-31T23:14:42.387Z,7.10
2022-12-31T23:17:29.520Z,7.10
2022-12-31T23:20:06.643Z,7.10
2022-12-31T23:22:40.709Z,7.20
2022-12-31T23:25:14.687Z,7.20
2022-12-31T23:27:41.630Z,7.20
2022-12-31T23:30:15.658Z,7.30
2022-12-31T23:32:42.542Z,7.20
2022-12-31T23:35:15.737Z,7.20
2022-12-31T23:37:42.600Z,7.20
2022-12-31T23:40:21.483Z,7.20
2022-12-31T23:42:50.130Z,7.20
2022-12-31T23:45:29.566Z,7.30
2022-12-31T23:48:07.275Z,7.40
2022-12-31T23:50:34.474Z,7.30
2022-12-31T23:53:07.741Z,7.40
2022-12-31T23:55:41.694Z,7.60
2022-12-31T23:58:09.403Z,7.50
